sensor_id;sensor_type;location;lat;lon;timestamp;pressure;altitude;pressure_sealevel;temperature;humidity
13080;BME280;6606;49.154;9.280;2022-10-22T00:01:18;99302.03;;;15.85;100.00
13080;BME280;6606;49.154;9.280;2022-10-22T00:03:45;99305.44;;;15.75;100.00
13080;BME280;6606;49.154;9.280;2022-10-22T00:06:12;99326.53;;;15.67;100.00
13080;BME280;6606;49.154;9.280;2022-10-22T00:08:40;99313.63;;;15.61;100.00
13080;BME280;6606;49.154;9.280;2022-10-22T00:11:08;99325.03;;;15.52;100.00
13080;BME280;6606;49.154;9.280;2022-10-22T00:13:35;99314.78;;;15.34;100.00
13080;BME280;6606;49.154;9.280;2022-10-22T00:16:01;99322.91;;;15.33;100.00
13080;BME280;6606;49.154;9.280;2022-10-22T00:18:28;99327.63;;;15.29;100.00
13080;BME280;6606;49.154;9.280;2022-10-22T00:20:55;99324.75;;;15.32;100.00
13080;BME280;6606;49.154;9.280;2022-10-22T00:23:21;99321.56;;;15.27;100.00
13080;BME280;6606;49.154;9.280;2022-10-22T00:25:49;99319.84;;;15.26;100.00
13080;BME280;6606;49.154;9.280;2022-10-22T00:28:18;99320.91;;;15.24;100.00
13080;BME280;6606;49.154;9.280;2022-10-22T00:30:44;99323.50;;;15.25;100.00
13080;BME280;6606;49.154;9.280;2022-10-22T00:33:11;99313.78;;;15.24;100.00
13080;BME280;6606;49.154;9.280;2022-10-22T00:35:38;99315.72;;;15.22;100.00
13080;BME280;6606;49.154;9.280;2022-10-22T00:38:04;99318.97;;;15.14;100.00
13080;BME280;6606;49.154;9.280;2022-10-22T00:40:33;99324.03;;;15.06;100.00
13080;BME280;6606;49.154;9.280;2022-10-22T00:43:01;99315.84;;;14.97;100.00
13080;BME280;6606;49.154;9.280;2022-10-22T00:45:28;99335.59;;;14.94;100.00
13080;BME280;6606;49.154;9.280;2022-10-22T00:47:59;99368.94;;;14.88;100.00
13080;BME280;6606;49.154;9.280;2022-10-22T00:50:29;99388.44;;;14.89;100.00
13080;BME280;6606;49.154;9.280;2022-10-22T00:52:57;99382.19;;;14.77;100.00
13080;BME280;6606;49.154;9.280;2022-10-22T00:55:25;99365.44;;;14.75;100.00
13080;BME280;6606;49.154;9.280;2022-10-22T00:57:53;99361.25;;;14.84;100.00
13080;BME280;6606;49.154;9.280;2022-10-22T01:00:22;99349.44;;;14.75;100.00
13080;BME280;6606;49.154;9.280;2022-10-22T01:02:51;99331.16;;;14.82;100.00
13080;BME280;6606;49.154;9.280;2022-10-22T01:05:18;99334.00;;;14.91;100.00
13080;BME280;6606;49.154;9.280;2022-10-22T01:07:48;99328.56;;;14.93;100.00
13080;BME280;6606;49.154;9.280;2022-10-22T01:10:24;99328.38;;;14.83;100.00
13080;BME280;6606;49.154;9.280;2022-10-22T01:13:00;99315.72;;;14.74;100.00
13080;BME280;6606;49.154;9.280;2022-10-22T01:15:36;99309.13;;;14.67;100.00
13080;BME280;6606;49.154;9.280;2022-10-22T01:18:07;99313.69;;;14.78;100.00
13080;BME280;6606;49.154;9.280;2022-10-22T01:20:45;99324.34;;;14.78;100.00
13080;BME280;6606;49.154;9.280;2022-10-22T01:23:29;99328.94;;;14.76;100.00
13080;BME280;6606;49.154;9.280;2022-10-22T01:26:04;99327.34;;;14.73;100.00
13080;BME280;6606;49.154;9.280;2022-10-22T01:28:49;99335.03;;;14.78;100.00
13080;BME280;6606;49.154;9.280;2022-10-22T01:31:21;99335.53;;;14.83;100.00
13080;BME280;6606;49.154;9.280;2022-10-22T01:33:50;99337.59;;;14.79;100.00
13080;BME280;6606;49.154;9.280;2022-10-22T01:36:19;99330.81;;;14.86;100.00
13080;BME280;6606;49.154;9.280;2022-10-22T01:38:48;99341.44;;;14.75;100.00
13080;BME280;6606;49.154;9.280;2022-10-22T01:41:16;99356.16;;;14.68;100.00
13080;BME280;6606;49.154;9.280;2022-10-22T01:43:45;99357.16;;;14.67;100.00
13080;BME280;6606;49.154;9.280;2022-10-22T01:46:12;99358.28;;;14.76;100.00
13080;BME280;6606;49.154;9.280;2022-10-22T01:48:47;99349.53;;;14.73;100.00
13080;BME280;6606;49.154;9.280;2022-10-22T01:51:27;99365.66;;;14.72;100.00
13080;BME280;6606;49.154;9.280;2022-10-22T01:54:00;99376.34;;;14.72;100.00
13080;BME280;6606;49.154;9.280;2022-10-22T01:56:36;99358.28;;;14.76;100.00
13080;BME280;6606;49.154;9.280;2022-10-22T01:59:14;99364.47;;;14.76;100.00
13080;BME280;6606;49.154;9.280;2022-10-22T02:01:48;99383.66;;;14.81;100.00
13080;BME280;6606;49.154;9.280;2022-10-22T02:04:21;99385.16;;;14.85;100.00
13080;BME280;6606;49.154;9.280;2022-10-22T02:06:50;99387.75;;;14.74;100.00
13080;BME280;6606;49.154;9.280;2022-10-22T02:09:19;99404.38;;;14.78;100.00
13080;BME280;6606;49.154;9.280;2022-10-22T02:11:47;99400.13;;;14.75;100.00
13080;BME280;6606;49.154;9.280;2022-10-22T02:14:17;99396.31;;;14.66;100.00
13080;BME280;6606;49.154;9.280;2022-10-22T02:16:47;99401.66;;;14.54;100.00
13080;BME280;6606;49.154;9.280;2022-10-22T02:19:17;99401.00;;;14.63;100.00
13080;BME280;6606;49.154;9.280;2022-10-22T02:21:48;99401.19;;;14.72;100.00
13080;BME280;6606;49.154;9.280;2022-10-22T02:24:16;99393.09;;;14.74;100.00
13080;BME280;6606;49.154;9.280;2022-10-22T02:26:46;99394.56;;;14.78;100.00
13080;BME280;6606;49.154;9.280;2022-10-22T02:29:23;99392.88;;;14.77;100.00
13080;BME280;6606;49.154;9.280;2022-10-22T02:31:52;99399.06;;;14.78;100.00
13080;BME280;6606;49.154;9.280;2022-10-22T02:34:24;99395.53;;;14.77;100.00
13080;BME280;6606;49.154;9.280;2022-10-22T02:36:53;99386.25;;;14.70;100.00
13080;BME280;6606;49.154;9.280;2022-10-22T02:39:20;99389.91;;;14.69;100.00
13080;BME280;6606;49.154;9.280;2022-10-22T02:41:47;99385.47;;;14.81;100.00
13080;BME280;6606;49.154;9.280;2022-10-22T02:44:14;99382.50;;;14.85;100.00
13080;BME280;6606;49.154;9.280;2022-10-22T02:46:42;99368.94;;;14.88;100.00
13080;BME280;6606;49.154;9.280;2022-10-22T02:49:09;99363.59;;;14.88;100.00
13080;BME280;6606;49.154;9.280;2022-10-22T02:51:36;99360.59;;;14.93;100.00
13080;BME280;6606;49.154;9.280;2022-10-22T02:54:02;99361.19;;;14.97;100.00
13080;BME280;6606;49.154;9.280;2022-10-22T02:56:29;99359.31;;;14.86;100.00
13080;BME280;6606;49.154;9.280;2022-10-22T02:58:56;99362.34;;;14.68;100.00
13080;BME280;6606;49.154;9.280;2022-10-22T03:01:23;99351.28;;;14.62;100.00
13080;BME280;6606;49.154;9.280;2022-10-22T03:03:51;99343.28;;;14.62;100.00
13080;BME280;6606;49.154;9.280;2022-10-22T03:06:17;99344.69;;;14.55;100.00
13080;BME280;6606;49.154;9.280;2022-10-22T03:08:44;99349.25;;;14.52;100.00
13080;BME280;6606;49.154;9.280;2022-10-22T03:11:11;99355.34;;;14.55;100.00
13080;BME280;6606;49.154;9.280;2022-10-22T03:13:37;99351.06;;;14.52;100.00
13080;BME280;6606;49.154;9.280;2022-10-22T03:16:05;99351.50;;;14.46;100.00
13080;BME280;6606;49.154;9.280;2022-10-22T03:18:32;99352.34;;;14.46;100.00
13080;BME280;6606;49.154;9.280;2022-10-22T03:21:06;99360.34;;;14.46;100.00
13080;BME280;6606;49.154;9.280;2022-10-22T03:23:34;99356.09;;;14.44;100.00
13080;BME280;6606;49.154;9.280;2022-10-22T03:26:01;99353.03;;;14.37;100.00
13080;BME280;6606;49.154;9.280;2022-10-22T03:28:28;99347.03;;;14.34;100.00
13080;BME280;6606;49.154;9.280;2022-10-22T03:30:54;99348.63;;;14.36;100.00
13080;BME280;6606;49.154;9.280;2022-10-22T03:33:21;99341.84;;;14.32;100.00
13080;BME280;6606;49.154;9.280;2022-10-22T03:35:48;99351.66;;;14.32;100.00
13080;BME280;6606;49.154;9.280;2022-10-22T03:38:16;99349.91;;;14.43;100.00
13080;BME280;6606;49.154;9.280;2022-10-22T03:40:43;99342.13;;;14.40;100.00
13080;BME280;6606;49.154;9.280;2022-10-22T03:43:11;99341.28;;;14.40;100.00
13080;BME280;6606;49.154;9.280;2022-10-22T03:45:38;99337.22;;;14.34;100.00
13080;BME280;6606;49.154;9.280;2022-10-22T03:48:04;99329.03;;;14.37;100.00
13080;BME280;6606;49.154;9.280;2022-10-22T03:50:31;99324.41;;;14.39;100.00
13080;BME280;6606;49.154;9.280;2022-10-22T03:52:58;99297.34;;;14.33;100.00
13080;BME280;6606;49.154;9.280;2022-10-22T03:55:26;99282.44;;;14.30;100.00
13080;BME280;6606;49.154;9.280;2022-10-22T03:57:53;99305.03;;;14.37;100.00
13080;BME280;6606;49.154;9.280;2022-10-22T04:00:19;99310.75;;;14.44;100.00
13080;BME280;6606;49.154;9.280;2022-10-22T04:02:46;99328.13;;;14.49;100.00
13080;BME280;6606;49.154;9.280;2022-10-22T04:05:13;99326.16;;;14.53;100.00
13080;BME280;6606;49.154;9.280;2022-10-22T04:07:39;99337.94;;;14.49;100.00
13080;BME280;6606;49.154;9.280;2022-10-22T04:10:07;99343.00;;;14.54;100.00
13080;BME280;6606;49.154;9.280;2022-10-22T04:12:35;99364.63;;;14.62;100.00
13080;BME280;6606;49.154;9.280;2022-10-22T04:15:01;99369.44;;;14.57;100.00
13080;BME280;6606;49.154;9.280;2022-10-22T04:17:32;99390.22;;;14.64;100.00
13080;BME280;6606;49.154;9.280;2022-10-22T04:19:59;99392.91;;;14.64;100.00
13080;BME280;6606;49.154;9.280;2022-10-22T04:22:25;99390.97;;;14.66;100.00
13080;BME280;6606;49.154;9.280;2022-10-22T04:24:52;99402.59;;;14.65;100.00
13080;BME280;6606;49.154;9.280;2022-10-22T04:27:18;99390.75;;;14.69;100.00
13080;BME280;6606;49.154;9.280;2022-10-22T04:29:46;99389.91;;;14.69;100.00
13080;BME280;6606;49.154;9.280;2022-10-22T04:32:13;99398.22;;;14.64;100.00
13080;BME280;6606;49.154;9.280;2022-10-22T04:34:40;99392.28;;;14.61;100.00
13080;BME280;6606;49.154;9.280;2022-10-22T04:37:06;99392.69;;;14.55;100.00
13080;BME280;6606;49.154;9.280;2022-10-22T04:39:33;99402.41;;;14.43;100.00
13080;BME280;6606;49.154;9.280;2022-10-22T04:42:00;99405.16;;;14.28;100.00
13080;BME280;6606;49.154;9.280;2022-10-22T04:44:26;99401.78;;;14.14;100.00
13080;BME280;6606;49.154;9.280;2022-10-22T04:46:54;99406.56;;;14.08;100.00
13080;BME280;6606;49.154;9.280;2022-10-22T04:49:21;99417.84;;;13.99;100.00
13080;BME280;6606;49.154;9.280;2022-10-22T04:51:48;99414.63;;;13.94;100.00
13080;BME280;6606;49.154;9.280;2022-10-22T04:54:14;99413.59;;;13.84;100.00
13080;BME280;6606;49.154;9.280;2022-10-22T04:56:41;99417.28;;;13.94;100.00
13080;BME280;6606;49.154;9.280;2022-10-22T04:59:10;99429.56;;;13.97;100.00
13080;BME280;6606;49.154;9.280;2022-10-22T05:01:39;99419.97;;;13.94;100.00
13080;BME280;6606;49.154;9.280;2022-10-22T05:04:08;99418.69;;;13.87;100.00
13080;BME280;6606;49.154;9.280;2022-10-22T05:06:36;99434.78;;;13.85;100.00
13080;BME280;6606;49.154;9.280;2022-10-22T05:09:05;99446.69;;;13.80;100.00
13080;BME280;6606;49.154;9.280;2022-10-22T05:11:34;99443.56;;;13.73;100.00
13080;BME280;6606;49.154;9.280;2022-10-22T05:14:03;99440.03;;;13.60;100.00
13080;BME280;6606;49.154;9.280;2022-10-22T05:16:31;99462.03;;;13.49;100.00
13080;BME280;6606;49.154;9.280;2022-10-22T05:18:59;99460.00;;;13.26;100.00
13080;BME280;6606;49.154;9.280;2022-10-22T05:21:27;99455.69;;;13.10;100.00
13080;BME280;6606;49.154;9.280;2022-10-22T05:23:55;99458.16;;;12.99;100.00
13080;BME280;6606;49.154;9.280;2022-10-22T05:26:24;99450.03;;;13.15;100.00
13080;BME280;6606;49.154;9.280;2022-10-22T05:28:51;99458.81;;;13.03;100.00
13080;BME280;6606;49.154;9.280;2022-10-22T05:31:18;99471.72;;;13.09;100.00
13080;BME280;6606;49.154;9.280;2022-10-22T05:33:45;99467.09;;;12.98;100.00
13080;BME280;6606;49.154;9.280;2022-10-22T05:36:14;99486.31;;;12.74;100.00
13080;BME280;6606;49.154;9.280;2022-10-22T05:38:42;99490.59;;;12.63;100.00
13080;BME280;6606;49.154;9.280;2022-10-22T05:41:10;99480.41;;;12.55;100.00
13080;BME280;6606;49.154;9.280;2022-10-22T05:43:37;99483.94;;;12.41;100.00
13080;BME280;6606;49.154;9.280;2022-10-22T05:46:06;99486.66;;;12.40;100.00
13080;BME280;6606;49.154;9.280;2022-10-22T05:48:34;99499.06;;;12.25;100.00
13080;BME280;6606;49.154;9.280;2022-10-22T05:51:01;99497.38;;;12.24;100.00
13080;BME280;6606;49.154;9.280;2022-10-22T05:53:30;99494.63;;;12.25;100.00
13080;BME280;6606;49.154;9.280;2022-10-22T05:56:00;99498.22;;;12.24;100.00
13080;BME280;6606;49.154;9.280;2022-10-22T05:58:27;99501.34;;;12.17;100.00
13080;BME280;6606;49.154;9.280;2022-10-22T06:00:54;99501.25;;;12.18;100.00
13080;BME280;6606;49.154;9.280;2022-10-22T06:03:20;99505.63;;;12.19;100.00
13080;BME280;6606;49.154;9.280;2022-10-22T06:05:47;99504.69;;;12.20;100.00
13080;BME280;6606;49.154;9.280;2022-10-22T06:08:14;99507.34;;;12.20;100.00
13080;BME280;6606;49.154;9.280;2022-10-22T06:10:41;99509.34;;;12.31;100.00
13080;BME280;6606;49.154;9.280;2022-10-22T06:13:10;99505.47;;;12.37;100.00
13080;BME280;6606;49.154;9.280;2022-10-22T06:15:37;99511.34;;;12.42;100.00
13080;BME280;6606;49.154;9.280;2022-10-22T06:18:03;99527.31;;;12.42;100.00
13080;BME280;6606;49.154;9.280;2022-10-22T06:20:32;99523.16;;;12.52;100.00
13080;BME280;6606;49.154;9.280;2022-10-22T06:22:59;99531.72;;;12.57;100.00
13080;BME280;6606;49.154;9.280;2022-10-22T06:25:26;99525.81;;;12.66;100.00
13080;BME280;6606;49.154;9.280;2022-10-22T06:27:53;99536.94;;;12.73;100.00
13080;BME280;6606;49.154;9.280;2022-10-22T06:30:21;99542.91;;;12.76;100.00
13080;BME280;6606;49.154;9.280;2022-10-22T06:32:47;99553.16;;;12.83;100.00
13080;BME280;6606;49.154;9.280;2022-10-22T06:35:14;99557.75;;;12.95;100.00
13080;BME280;6606;49.154;9.280;2022-10-22T06:37:41;99561.28;;;13.10;100.00
13080;BME280;6606;49.154;9.280;2022-10-22T06:40:08;99563.81;;;13.11;100.00
13080;BME280;6606;49.154;9.280;2022-10-22T06:42:35;99570.66;;;13.15;100.00
13080;BME280;6606;49.154;9.280;2022-10-22T06:45:02;99568.84;;;13.30;100.00
13080;BME280;6606;49.154;9.280;2022-10-22T06:47:30;99569.50;;;13.48;100.00
13080;BME280;6606;49.154;9.280;2022-10-22T06:49:57;99574.63;;;13.51;100.00
13080;BME280;6606;49.154;9.280;2022-10-22T06:52:24;99576.16;;;13.55;100.00
13080;BME280;6606;49.154;9.280;2022-10-22T06:54:51;99587.53;;;13.57;100.00
13080;BME280;6606;49.154;9.280;2022-10-22T06:57:17;99593.16;;;13.67;100.00
13080;BME280;6606;49.154;9.280;2022-10-22T06:59:45;99594.91;;;13.81;100.00
13080;BME280;6606;49.154;9.280;2022-10-22T07:02:11;99602.19;;;13.92;100.00
13080;BME280;6606;49.154;9.280;2022-10-22T07:04:39;99606.03;;;13.88;100.00
13080;BME280;6606;49.154;9.280;2022-10-22T07:07:06;99607.53;;;13.92;100.00
13080;BME280;6606;49.154;9.280;2022-10-22T07:09:33;99613.09;;;14.16;100.00
13080;BME280;6606;49.154;9.280;2022-10-22T07:11:59;99615.34;;;14.22;100.00
13080;BME280;6606;49.154;9.280;2022-10-22T07:14:26;99618.56;;;14.27;100.00
13080;BME280;6606;49.154;9.280;2022-10-22T07:16:53;99627.53;;;14.39;100.00
13080;BME280;6606;49.154;9.280;2022-10-22T07:19:19;99620.94;;;14.44;100.00
13080;BME280;6606;49.154;9.280;2022-10-22T07:21:47;99635.41;;;14.55;100.00
13080;BME280;6606;49.154;9.280;2022-10-22T07:24:14;99640.91;;;14.51;100.00
13080;BME280;6606;49.154;9.280;2022-10-22T07:26:41;99643.44;;;14.67;100.00
13080;BME280;6606;49.154;9.280;2022-10-22T07:29:07;99644.53;;;14.78;100.00
13080;BME280;6606;49.154;9.280;2022-10-22T07:31:34;99647.44;;;14.87;100.00
13080;BME280;6606;49.154;9.280;2022-10-22T07:34:01;99643.25;;;14.83;100.00
13080;BME280;6606;49.154;9.280;2022-10-22T07:36:28;99640.91;;;14.91;100.00
13080;BME280;6606;49.154;9.280;2022-10-22T07:38:57;99649.44;;;14.97;100.00
13080;BME280;6606;49.154;9.280;2022-10-22T07:41:24;99652.22;;;14.95;100.00
13080;BME280;6606;49.154;9.280;2022-10-22T07:43:52;99651.56;;;14.91;100.00
13080;BME280;6606;49.154;9.280;2022-10-22T07:46:19;99661.09;;;14.95;100.00
13080;BME280;6606;49.154;9.280;2022-10-22T07:48:46;99652.03;;;14.98;100.00
13080;BME280;6606;49.154;9.280;2022-10-22T07:51:12;99656.72;;;15.07;100.00
13080;BME280;6606;49.154;9.280;2022-10-22T07:53:39;99663.56;;;15.11;100.00
13080;BME280;6606;49.154;9.280;2022-10-22T07:56:08;99657.34;;;15.36;100.00
13080;BME280;6606;49.154;9.280;2022-10-22T07:58:35;99662.91;;;15.59;100.00
13080;BME280;6606;49.154;9.280;2022-10-22T08:01:02;99664.38;;;15.50;100.00
13080;BME280;6606;49.154;9.280;2022-10-22T08:03:30;99664.72;;;15.33;100.00
13080;BME280;6606;49.154;9.280;2022-10-22T08:05:57;99668.69;;;15.27;100.00
13080;BME280;6606;49.154;9.280;2022-10-22T08:08:24;99659.56;;;15.43;100.00
13080;BME280;6606;49.154;9.280;2022-10-22T08:10:51;99665.69;;;15.70;100.00
13080;BME280;6606;49.154;9.280;2022-10-22T08:13:20;99654.50;;;15.89;100.00
13080;BME280;6606;49.154;9.280;2022-10-22T08:15:47;99663.03;;;15.94;100.00
13080;BME280;6606;49.154;9.280;2022-10-22T08:18:14;99667.09;;;16.00;100.00
13080;BME280;6606;49.154;9.280;2022-10-22T08:20:41;99672.16;;;15.92;100.00
13080;BME280;6606;49.154;9.280;2022-10-22T08:23:08;99670.88;;;15.85;100.00
13080;BME280;6606;49.154;9.280;2022-10-22T08:25:35;99663.19;;;15.67;100.00
13080;BME280;6606;49.154;9.280;2022-10-22T08:28:02;99663.09;;;15.69;100.00
13080;BME280;6606;49.154;9.280;2022-10-22T08:30:30;99658.75;;;16.04;100.00
13080;BME280;6606;49.154;9.280;2022-10-22T08:32:58;99662.31;;;16.16;100.00
13080;BME280;6606;49.154;9.280;2022-10-22T08:35:25;99664.94;;;16.05;100.00
13080;BME280;6606;49.154;9.280;2022-10-22T08:37:51;99664.38;;;16.37;100.00
13080;BME280;6606;49.154;9.280;2022-10-22T08:40:22;99669.09;;;16.57;100.00
13080;BME280;6606;49.154;9.280;2022-10-22T08:46:05;99657.91;;;16.87;100.00
13080;BME280;6606;49.154;9.280;2022-10-22T08:48:41;99662.41;;;16.87;100.00
13080;BME280;6606;49.154;9.280;2022-10-22T08:51:12;99660.25;;;17.03;100.00
13080;BME280;6606;49.154;9.280;2022-10-22T08:53:48;99656.03;;;17.23;100.00
13080;BME280;6606;49.154;9.280;2022-10-22T08:56:16;99662.38;;;17.45;100.00
13080;BME280;6606;49.154;9.280;2022-10-22T08:58:48;99651.78;;;17.66;100.00
13080;BME280;6606;49.154;9.280;2022-10-22T09:01:20;99652.19;;;17.84;100.00
13080;BME280;6606;49.154;9.280;2022-10-22T09:03:51;99654.47;;;17.88;100.00
13080;BME280;6606;49.154;9.280;2022-10-22T09:06:21;99663.09;;;18.03;100.00
13080;BME280;6606;49.154;9.280;2022-10-22T09:08:51;99659.19;;;18.07;100.00
13080;BME280;6606;49.154;9.280;2022-10-22T09:11:24;99664.22;;;18.00;100.00
13080;BME280;6606;49.154;9.280;2022-10-22T09:13:53;99669.53;;;18.12;100.00
13080;BME280;6606;49.154;9.280;2022-10-22T09:16:29;99665.09;;;18.33;100.00
13080;BME280;6606;49.154;9.280;2022-10-22T09:19:11;99670.44;;;18.44;100.00
13080;BME280;6606;49.154;9.280;2022-10-22T09:21:47;99674.34;;;18.40;100.00
13080;BME280;6606;49.154;9.280;2022-10-22T09:24:23;99677.72;;;18.54;100.00
13080;BME280;6606;49.154;9.280;2022-10-22T09:26:51;99683.09;;;18.54;100.00
13080;BME280;6606;49.154;9.280;2022-10-22T09:29:21;99686.25;;;18.59;100.00
13080;BME280;6606;49.154;9.280;2022-10-22T09:31:50;99689.97;;;18.67;100.00
13080;BME280;6606;49.154;9.280;2022-10-22T09:34:19;99692.81;;;18.66;100.00
13080;BME280;6606;49.154;9.280;2022-10-22T09:36:46;99698.09;;;18.56;100.00
13080;BME280;6606;49.154;9.280;2022-10-22T09:39:24;99694.13;;;18.28;100.00
13080;BME280;6606;49.154;9.280;2022-10-22T09:41:51;99704.06;;;18.16;100.00
13080;BME280;6606;49.154;9.280;2022-10-22T09:44:19;99712.00;;;18.18;100.00
13080;BME280;6606;49.154;9.280;2022-10-22T09:46:46;99713.13;;;18.36;100.00
13080;BME280;6606;49.154;9.280;2022-10-22T09:49:15;99726.59;;;18.80;100.00
13080;BME280;6606;49.154;9.280;2022-10-22T09:51:51;99726.09;;;19.07;100.00
13080;BME280;6606;49.154;9.280;2022-10-22T09:54:19;99727.22;;;19.25;100.00
13080;BME280;6606;49.154;9.280;2022-10-22T09:56:54;99728.66;;;19.29;100.00
13080;BME280;6606;49.154;9.280;2022-10-22T09:59:27;99729.91;;;19.25;100.00
13080;BME280;6606;49.154;9.280;2022-10-22T10:02:01;99734.97;;;19.40;100.00
13080;BME280;6606;49.154;9.280;2022-10-22T10:04:33;99737.22;;;19.44;100.00
13080;BME280;6606;49.154;9.280;2022-10-22T10:07:00;99731.72;;;19.46;100.00
13080;BME280;6606;49.154;9.280;2022-10-22T10:09:30;99737.59;;;19.61;100.00
13080;BME280;6606;49.154;9.280;2022-10-22T10:12:05;99739.97;;;19.54;100.00
13080;BME280;6606;49.154;9.280;2022-10-22T10:14:39;99747.66;;;19.80;100.00
13080;BME280;6606;49.154;9.280;2022-10-22T10:17:16;99754.09;;;19.67;100.00
13080;BME280;6606;49.154;9.280;2022-10-22T10:19:56;99760.75;;;19.52;100.00
13080;BME280;6606;49.154;9.280;2022-10-22T10:22:37;99753.03;;;19.38;100.00
13080;BME280;6606;49.154;9.280;2022-10-22T10:25:26;99751.59;;;19.75;100.00
13080;BME280;6606;49.154;9.280;2022-10-22T10:28:00;99759.72;;;19.64;100.00
13080;BME280;6606;49.154;9.280;2022-10-22T10:30:29;99766.88;;;19.54;100.00
13080;BME280;6606;49.154;9.280;2022-10-22T10:33:07;99775.06;;;19.31;100.00
13080;BME280;6606;49.154;9.280;2022-10-22T10:35:45;99762.03;;;19.27;100.00
13080;BME280;6606;49.154;9.280;2022-10-22T10:38:34;99770.47;;;19.22;100.00
13080;BME280;6606;49.154;9.280;2022-10-22T10:41:22;99768.44;;;19.57;100.00
13080;BME280;6606;49.154;9.280;2022-10-22T10:44:01;99770.31;;;19.87;100.00
13080;BME280;6606;49.154;9.280;2022-10-22T10:46:36;99767.63;;;19.66;100.00
13080;BME280;6606;49.154;9.280;2022-10-22T10:49:08;99768.38;;;19.47;100.00
13080;BME280;6606;49.154;9.280;2022-10-22T10:51:46;99773.00;;;19.66;100.00
13080;BME280;6606;49.154;9.280;2022-10-22T10:54:34;99763.53;;;19.83;100.00
13080;BME280;6606;49.154;9.280;2022-10-22T10:57:12;99764.91;;;19.77;100.00
13080;BME280;6606;49.154;9.280;2022-10-22T11:00:00;99763.81;;;20.20;100.00
13080;BME280;6606;49.154;9.280;2022-10-22T11:03:01;99762.47;;;20.05;100.00
13080;BME280;6606;49.154;9.280;2022-10-22T11:05:40;99764.28;;;19.94;100.00
13080;BME280;6606;49.154;9.280;2022-10-22T11:08:14;99757.16;;;20.14;100.00
13080;BME280;6606;49.154;9.280;2022-10-22T11:10:45;99768.41;;;19.98;100.00
13080;BME280;6606;49.154;9.280;2022-10-22T11:13:18;99754.56;;;19.72;100.00
13080;BME280;6606;49.154;9.280;2022-10-22T11:15:51;99762.44;;;19.95;100.00
13080;BME280;6606;49.154;9.280;2022-10-22T11:18:27;99767.63;;;20.17;100.00
13080;BME280;6606;49.154;9.280;2022-10-22T11:21:08;99755.75;;;20.20;100.00
13080;BME280;6606;49.154;9.280;2022-10-22T11:23:43;99754.63;;;20.23;100.00
13080;BME280;6606;49.154;9.280;2022-10-22T11:26:30;99756.91;;;20.37;100.00
13080;BME280;6606;49.154;9.280;2022-10-22T11:29:00;99756.31;;;20.24;100.00
13080;BME280;6606;49.154;9.280;2022-10-22T11:31:29;99762.28;;;20.37;100.00
13080;BME280;6606;49.154;9.280;2022-10-22T11:34:04;99765.72;;;20.39;100.00
13080;BME280;6606;49.154;9.280;2022-10-22T11:36:33;99759.16;;;20.22;100.00
13080;BME280;6606;49.154;9.280;2022-10-22T11:39:03;99760.13;;;20.11;100.00
13080;BME280;6606;49.154;9.280;2022-10-22T11:41:32;99756.03;;;20.27;100.00
13080;BME280;6606;49.154;9.280;2022-10-22T11:44:10;99749.69;;;20.37;100.00
13080;BME280;6606;49.154;9.280;2022-10-22T11:46:44;99755.59;;;20.72;100.00
13080;BME280;6606;49.154;9.280;2022-10-22T11:49:22;99748.31;;;20.53;100.00
13080;BME280;6606;49.154;9.280;2022-10-22T11:51:50;99745.69;;;21.01;100.00
13080;BME280;6606;49.154;9.280;2022-10-22T11:54:37;99742.84;;;20.83;100.00
13080;BME280;6606;49.154;9.280;2022-10-22T11:57:19;99733.75;;;20.84;100.00
13080;BME280;6606;49.154;9.280;2022-10-22T11:59:51;99736.03;;;21.08;100.00
13080;BME280;6606;49.154;9.280;2022-10-22T12:02:41;99729.53;;;20.72;100.00
13080;BME280;6606;49.154;9.280;2022-10-22T12:05:34;99736.06;;;20.99;100.00
13080;BME280;6606;49.154;9.280;2022-10-22T12:08:16;99736.44;;;21.14;100.00
13080;BME280;6606;49.154;9.280;2022-10-22T12:11:05;99739.41;;;21.30;100.00
13080;BME280;6606;49.154;9.280;2022-10-22T12:14:02;99730.50;;;21.10;100.00
13080;BME280;6606;49.154;9.280;2022-10-22T12:16:38;99730.91;;;21.44;100.00
13080;BME280;6606;49.154;9.280;2022-10-22T12:19:12;99723.22;;;21.49;100.00
13080;BME280;6606;49.154;9.280;2022-10-22T12:21:41;99724.50;;;21.55;100.00
13080;BME280;6606;49.154;9.280;2022-10-22T12:24:12;99722.03;;;21.62;100.00
13080;BME280;6606;49.154;9.280;2022-10-22T12:26:40;99723.78;;;21.53;100.00
13080;BME280;6606;49.154;9.280;2022-10-22T12:29:11;99719.47;;;21.70;100.00
13080;BME280;6606;49.154;9.280;2022-10-22T12:31:39;99716.94;;;21.59;100.00
13080;BME280;6606;49.154;9.280;2022-10-22T12:34:12;99718.97;;;21.57;100.00
13080;BME280;6606;49.154;9.280;2022-10-22T12:36:39;99709.94;;;21.38;100.00
13080;BME280;6606;49.154;9.280;2022-10-22T12:39:11;99712.84;;;21.35;100.00
13080;BME280;6606;49.154;9.280;2022-10-22T12:41:38;99706.94;;;21.41;100.00
13080;BME280;6606;49.154;9.280;2022-10-22T12:44:10;99709.25;;;21.64;100.00
13080;BME280;6606;49.154;9.280;2022-10-22T12:46:38;99706.44;;;21.56;100.00
13080;BME280;6606;49.154;9.280;2022-10-22T12:49:10;99707.06;;;21.40;100.00
13080;BME280;6606;49.154;9.280;2022-10-22T12:51:39;99711.13;;;21.63;100.00
13080;BME280;6606;49.154;9.280;2022-10-22T12:54:08;99713.69;;;21.92;100.00
13080;BME280;6606;49.154;9.280;2022-10-22T12:56:36;99702.59;;;21.95;100.00
13080;BME280;6606;49.154;9.280;2022-10-22T12:59:11;99709.59;;;22.16;100.00
13080;BME280;6606;49.154;9.280;2022-10-22T13:01:41;99698.94;;;22.24;100.00
13080;BME280;6606;49.154;9.280;2022-10-22T13:04:19;99708.97;;;22.32;100.00
13080;BME280;6606;49.154;9.280;2022-10-22T13:06:48;99710.56;;;22.25;100.00
13080;BME280;6606;49.154;9.280;2022-10-22T13:09:18;99704.22;;;22.16;100.00
13080;BME280;6606;49.154;9.280;2022-10-22T13:11:50;99689.28;;;21.94;100.00
13080;BME280;6606;49.154;9.280;2022-10-22T13:14:24;99704.91;;;21.90;100.00
13080;BME280;6606;49.154;9.280;2022-10-22T13:17:03;99703.25;;;21.80;100.00
13080;BME280;6606;49.154;9.280;2022-10-22T13:19:42;99706.22;;;21.86;100.00